Time;durP1;ratioP1;P1;durP2;ratioP2;P2;SDS_P1;SDS_P2;PMS_P1;PMS_P2;Temp;Humidity;BMP_temperature;BMP_pressure;BME280_temperature;BME280_humidity;BME280_pressure;Samples;Min_cycle;Max_cycle;Signal;HPM_P1;HPM_P2
2024/03/24 00:00:23;;;;;;;;;;;;;;;;;;4971386;28;19930;-72
2024/03/24 00:02:50;;;;;;;;;;;;;;;;;;4967864;28;20181;-72
2024/03/24 00:05:16;;;;;;;;;;;;;;;;;;4964406;28;19938;-72
2024/03/24 00:07:43;;;;;;;;;;;;;;;;;;4961191;28;19929;-72
2024/03/24 00:10:09;;;;;;;;;;;;;;;;;;4962779;28;19934;-72
2024/03/24 00:12:36;;;;;;;;;;;;;;;;;;4966864;28;19930;-73
2024/03/24 00:15:02;;;;;;;;;;;;;;;;;;4969943;28;19937;-72
2024/03/24 00:17:30;;;;;;;;;;;;;;;;;;4986028;28;19928;-72
2024/03/24 00:19:56;;;;;;;;;;;;;;;;;;4974822;28;20355;-72
2024/03/24 00:22:23;;;;;;;;;;;;;;;;;;4969510;28;19934;-73
2024/03/24 00:24:49;;;;;;;;;;;;;;;;;;4968273;28;20604;-73
2024/03/24 00:27:16;;;;;;;;;;;;;;;;;;4983880;28;20388;-74
2024/03/24 00:29:42;;;;;;;;;;;;;;;;;;4967851;28;19934;-75
2024/03/24 00:32:09;;;;;;;;;;;;;;;;;;4972020;28;19934;-73
2024/03/24 00:34:35;;;;;;;;;;;;;;;;;;4965198;28;19930;-74
2024/03/24 00:37:02;;;;;;;;;;;;;;;;;;4966958;28;19930;-73
2024/03/24 00:39:29;;;;;;;;;;;;;;;;;;4976763;28;20005;-74
2024/03/24 00:41:56;;;;;;;;;;;;;;;;;;4965455;28;20310;-74
2024/03/24 00:44:22;;;;;;;;;;;;;;;;;;4967306;28;19981;-73
2024/03/24 00:46:49;;;;;;;;;;;;;;;;;;4964122;28;19933;-73
2024/03/24 00:49:15;;;;;;;;;;;;;;;;;;4963767;28;19988;-75
2024/03/24 00:51:42;;;;;;;;;;;;;;;;;;4962302;28;19934;-73
2024/03/24 00:54:09;;;;;;;;;;;;;;;;;;4967326;28;19930;-73
2024/03/24 00:56:36;;;;;;;;;;;;;;;;;;4965703;28;19937;-73
2024/03/24 00:59:02;;;;;;;;;;;;;;;;;;4966142;28;19934;-74
2024/03/24 01:01:29;;;;;;;;;;;;;;;;;;4963975;28;19930;-74
2024/03/24 01:03:55;;;;;;;;;;;;;;;;;;4966137;28;19980;-75
2024/03/24 01:06:23;;;;;;;;;;;;;;;;;;4966550;28;19979;-75
2024/03/24 01:08:49;;;;;;;;;;;;;;;;;;4962671;28;20286;-74
2024/03/24 01:11:16;;;;;;;;;;;;;;;;;;4972416;28;20328;-75
2024/03/24 01:13:42;;;;;;;;;;;;;;;;;;4963443;28;19930;-75
2024/03/24 01:16:09;;;;;;;;;;;;;;;;;;4965215;28;20654;-73
2024/03/24 01:18:35;;;;;;;;;;;;;;;;;;4963448;28;19930;-74
2024/03/24 01:21:02;;;;;;;;;;;;;;;;;;4965768;28;19941;-74
2024/03/24 01:23:31;;;;;;;;;;;;;;;;;;4964802;28;20328;-74
2024/03/24 01:25:58;;;;;;;;;;;;;;;;;;4964870;28;19930;-73
2024/03/24 01:28:24;;;;;;;;;;;;;;;;;;4966673;28;20464;-74
2024/03/24 01:30:51;;;;;;;;;;;;;;;;;;4971263;28;19938;-73
2024/03/24 01:33:17;;;;;;;;;;;;;;;;;;4963316;28;19930;-75
2024/03/24 01:35:44;;;;;;;;;;;;;;;;;;4963238;28;19930;-73
2024/03/24 01:38:10;;;;;;;;;;;;;;;;;;4965220;28;19981;-74
2024/03/24 01:40:37;;;;;;;;;;;;;;;;;;4966373;28;19934;-74
2024/03/24 01:43:03;;;;;;;;;;;;;;;;;;4965625;28;19930;-72
2024/03/24 01:45:30;;;;;;;;;;;;;;;;;;4966152;28;19930;-73
2024/03/24 01:47:56;;;;;;;;;;;;;;;;;;4964376;28;19983;-73
2024/03/24 01:50:23;;;;;;;;;;;;;;;;;;4965130;28;19934;-73
2024/03/24 01:52:49;;;;;;;;;;;;;;;;;;4963268;28;19930;-72
2024/03/24 01:55:16;;;;;;;;;;;;;;;;;;4962080;28;19937;-73
2024/03/24 01:57:42;;;;;;;;;;;;;;;;;;4961638;28;19984;-73
2024/03/24 02:00:11;;;;;;;;;;;;;;;;;;4960175;28;19930;-72
2024/03/24 02:02:37;;;;;;;;;;;;;;;;;;4964355;28;19930;-72
2024/03/24 02:05:04;;;;;;;;;;;;;;;;;;4964196;28;20037;-73
2024/03/24 02:07:30;;;;;;;;;;;;;;;;;;4966853;28;19969;-72
2024/03/24 02:09:57;;;;;;;;;;;;;;;;;;4966711;28;19934;-72
2024/03/24 02:12:23;;;;;;;;;;;;;;;;;;4974960;28;20374;-72
2024/03/24 02:14:50;;;;;;;;;;;;;;;;;;4966925;28;19952;-71
2024/03/24 02:17:16;;;;;;;;;;;;;;;;;;4964936;28;20388;-73
2024/03/24 02:19:43;;;;;;;;;;;;;;;;;;4965094;28;19940;-74
2024/03/24 02:22:09;;;;;;;;;;;;;;;;;;4963827;28;19977;-73
2024/03/24 02:24:36;;;;;;;;;;;;;;;;;;4963948;28;20396;-74
2024/03/24 02:27:02;;;;;;;;;;;;;;;;;;4962723;28;20395;-73
2024/03/24 02:29:30;;;;;;;;;;;;;;;;;;4964653;28;20300;-73
2024/03/24 02:31:56;;;;;;;;;;;;;;;;;;4963362;28;19930;-72
2024/03/24 02:34:24;;;;;;;;;;;;;;;;;;4963235;28;19934;-71
2024/03/24 02:36:50;;;;;;;;;;;;;;;;;;4962515;28;19937;-73
2024/03/24 02:39:18;;;;;;;;;;;;;;;;;;4963218;28;20008;-71
2024/03/24 02:41:44;;;;;;;;;;;;;;;;;;4964550;28;19937;-74
2024/03/24 02:44:11;;;;;;;;;;;;;;;;;;4963582;28;20016;-73
2024/03/24 02:46:37;;;;;;;;;;;;;;;;;;4964799;28;19930;-73
2024/03/24 02:49:04;;;;;;;;;;;;;;;;;;4961413;28;19992;-73
2024/03/24 02:51:30;;;;;;;;;;;;;;;;;;4966264;28;19934;-72
2024/03/24 02:53:57;;;;;;;;;;;;;;;;;;4965509;28;19930;-72
2024/03/24 02:56:23;;;;;;;;;;;;;;;;;;4961718;28;20405;-73
2024/03/24 02:58:50;;;;;;;;;;;;;;;;;;4964819;28;20308;-73
2024/03/24 03:01:17;;;;;;;;;;;;;;;;;;4965251;28;19930;-74
2024/03/24 03:03:45;;;;;;;;;;;;;;;;;;4965329;28;19930;-73
2024/03/24 03:06:11;;;;;;;;;;;;;;;;;;4963668;28;20026;-75
2024/03/24 03:08:39;;;;;;;;;;;;;;;;;;4961411;28;20367;-75
2024/03/24 03:11:08;;;;;;;;;;;;;;;;;;4964480;28;19930;-74
2024/03/24 03:13:35;;;;;;;;;;;;;;;;;;4959975;28;19930;-74
2024/03/24 03:16:01;;;;;;;;;;;;;;;;;;4962971;28;19965;-74
2024/03/24 03:18:31;;;;;;;;;;;;;;;;;;4965031;28;19930;-74
2024/03/24 03:20:57;;;;;;;;;;;;;;;;;;4962389;28;19933;-74
2024/03/24 03:23:27;;;;;;;;;;;;;;;;;;4963958;28;19953;-74
2024/03/24 03:25:53;;;;;;;;;;;;;;;;;;4962831;28;21524;-74
2024/03/24 03:28:23;;;;;;;;;;;;;;;;;;4964544;28;21146;-74
2024/03/24 03:30:49;;;;;;;;;;;;;;;;;;4963259;28;20421;-74
2024/03/24 03:33:17;;;;;;;;;;;;;;;;;;4964833;28;20412;-73
2024/03/24 03:35:43;;;;;;;;;;;;;;;;;;4965016;28;19938;-72
2024/03/24 03:38:10;;;;;;;;;;;;;;;;;;4963340;28;19931;-73
2024/03/24 03:40:36;;;;;;;;;;;;;;;;;;4964594;28;19976;-74
2024/03/24 03:43:03;;;;;;;;;;;;;;;;;;4968083;28;19930;-73
2024/03/24 03:45:29;;;;;;;;;;;;;;;;;;4967836;28;20048;-74
2024/03/24 03:47:56;;;;;;;;;;;;;;;;;;4975515;28;19984;-74
2024/03/24 03:50:23;;;;;;;;;;;;;;;;;;4963758;28;19934;-74
2024/03/24 03:52:50;;;;;;;;;;;;;;;;;;4967127;28;20037;-73
2024/03/24 03:55:16;;;;;;;;;;;;;;;;;;4964350;28;20399;-74
2024/03/24 03:57:43;;;;;;;;;;;;;;;;;;4961388;28;20367;-73
2024/03/24 04:00:10;;;;;;;;;;;;;;;;;;4963803;28;19977;-74
2024/03/24 04:02:38;;;;;;;;;;;;;;;;;;4968086;28;20017;-73
2024/03/24 04:05:04;;;;;;;;;;;;;;;;;;4966611;28;20003;-73
2024/03/24 04:07:31;;;;;;;;;;;;;;;;;;4967132;28;19937;-75
2024/03/24 04:09:57;;;;;;;;;;;;;;;;;;4966422;28;20360;-75
2024/03/24 04:12:24;;;;;;;;;;;;;;;;;;4967731;28;19934;-75
2024/03/24 04:14:50;;;;;;;;;;;;;;;;;;4967282;28;20285;-74
2024/03/24 04:17:17;;;;;;;;;;;;;;;;;;4966083;28;19930;-74
2024/03/24 04:19:43;;;;;;;;;;;;;;;;;;4967775;28;19949;-73
2024/03/24 04:22:10;;;;;;;;;;;;;;;;;;4964497;28;19930;-73
2024/03/24 04:24:36;;;;;;;;;;;;;;;;;;4967526;28;19930;-73
2024/03/24 04:27:03;;;;;;;;;;;;;;;;;;4964211;28;20679;-73
2024/03/24 04:29:29;;;;;;;;;;;;;;;;;;4961447;28;19930;-73
2024/03/24 04:31:56;;;;;;;;;;;;;;;;;;4964084;28;19938;-73
2024/03/24 04:34:22;;;;;;;;;;;;;;;;;;4966408;28;19977;-74
2024/03/24 04:36:49;;;;;;;;;;;;;;;;;;4966010;28;19930;-74
2024/03/24 04:39:18;;;;;;;;;;;;;;;;;;4966294;28;19981;-73
2024/03/24 04:41:45;;;;;;;;;;;;;;;;;;4964489;28;19931;-74
2024/03/24 04:44:12;;;;;;;;;;;;;;;;;;4961528;28;19934;-74
2024/03/24 04:46:40;;;;;;;;;;;;;;;;;;4967644;28;19980;-75
2024/03/24 04:49:07;;;;;;;;;;;;;;;;;;4961620;28;19929;-75
2024/03/24 04:51:33;;;;;;;;;;;;;;;;;;4965013;28;19930;-75
2024/03/24 04:54:00;;;;;;;;;;;;;;;;;;4967169;28;19961;-75
2024/03/24 04:56:26;;;;;;;;;;;;;;;;;;4966603;28;20333;-76
2024/03/24 04:58:53;;;;;;;;;;;;;;;;;;4964915;28;20838;-75
2024/03/24 05:01:19;;;;;;;;;;;;;;;;;;4961556;28;19938;-76
2024/03/24 05:03:46;;;;;;;;;;;;;;;;;;4963345;28;20308;-76
2024/03/24 05:06:12;;;;;;;;;;;;;;;;;;4962282;28;20397;-76
2024/03/24 05:08:40;;;;;;;;;;;;;;;;;;4965606;28;20468;-74
2024/03/24 05:11:06;;;;;;;;;;;;;;;;;;4966042;28;20015;-74
2024/03/24 05:13:33;;;;;;;;;;;;;;;;;;4963221;28;19953;-74
2024/03/24 05:15:59;;;;;;;;;;;;;;;;;;4967380;28;19992;-74
2024/03/24 05:18:26;;;;;;;;;;;;;;;;;;4964957;28;19939;-74
2024/03/24 05:20:53;;;;;;;;;;;;;;;;;;4970095;28;20015;-73
2024/03/24 05:23:20;;;;;;;;;;;;;;;;;;4968208;28;20396;-73
2024/03/24 05:25:46;;;;;;;;;;;;;;;;;;4966830;28;19980;-73
2024/03/24 05:28:13;;;;;;;;;;;;;;;;;;4967881;28;19968;-73
2024/03/24 05:30:39;;;;;;;;;;;;;;;;;;4966596;28;19969;-72
2024/03/24 05:33:06;;;;;;;;;;;;;;;;;;4965826;28;20305;-73
2024/03/24 05:35:32;;;;;;;;;;;;;;;;;;4965786;28;20071;-73
2024/03/24 05:37:59;;;;;;;;;;;;;;;;;;4971489;28;19949;-73
2024/03/24 05:40:25;;;;;;;;;;;;;;;;;;4965266;28;19934;-73
2024/03/24 05:42:53;;;;;;;;;;;;;;;;;;4962020;28;19944;-73
2024/03/24 05:45:19;;;;;;;;;;;;;;;;;;4963725;28;20275;-72
2024/03/24 05:47:46;;;;;;;;;;;;;;;;;;4964077;28;19936;-73
2024/03/24 05:50:12;;;;;;;;;;;;;;;;;;4961740;28;19940;-73
2024/03/24 05:52:41;;;;;;;;;;;;;;;;;;4964825;28;20021;-72
2024/03/24 05:55:07;;;;;;;;;;;;;;;;;;4961729;28;20408;-72
2024/03/24 05:57:34;;;;;;;;;;;;;;;;;;4963896;28;19930;-72
2024/03/24 06:00:00;;;;;;;;;;;;;;;;;;4965826;28;19976;-72
2024/03/24 06:02:27;;;;;;;;;;;;;;;;;;4965219;28;19934;-72
2024/03/24 06:04:53;;;;;;;;;;;;;;;;;;4966055;28;19933;-73
2024/03/24 06:07:21;;;;;;;;;;;;;;;;;;4965454;28;20412;-74
2024/03/24 06:09:47;;;;;;;;;;;;;;;;;;4962458;28;20019;-73
2024/03/24 06:12:14;;;;;;;;;;;;;;;;;;4966504;28;19930;-73
2024/03/24 06:14:40;;;;;;;;;;;;;;;;;;4965842;28;19995;-73
2024/03/24 06:17:07;;;;;;;;;;;;;;;;;;4961415;28;20330;-73
2024/03/24 06:19:33;;;;;;;;;;;;;;;;;;4963970;28;19930;-74
2024/03/24 06:22:00;;;;;;;;;;;;;;;;;;4965680;28;19984;-73
2024/03/24 06:24:26;;;;;;;;;;;;;;;;;;4965747;28;20628;-73
2024/03/24 06:26:54;;;;;;;;;;;;;;;;;;4965411;28;19983;-73
2024/03/24 06:29:20;;;;;;;;;;;;;;;;;;4966621;28;19930;-73
2024/03/24 06:31:47;;;;;;;;;;;;;;;;;;4967879;28;19934;-74
2024/03/24 06:34:13;;;;;;;;;;;;;;;;;;4965003;28;19984;-74
2024/03/24 06:36:41;;;;;;;;;;;;;;;;;;4963896;28;20573;-74
2024/03/24 06:39:08;;;;;;;;;;;;;;;;;;4969243;28;20658;-75
2024/03/24 06:41:38;;;;;;;;;;;;;;;;;;4965949;28;19934;-74
2024/03/24 06:44:12;;;;;;;;;;;;;;;;;;4965181;28;19934;-74
2024/03/24 06:46:39;;;;;;;;;;;;;;;;;;4964733;28;19931;-74
2024/03/24 06:49:05;;;;;;;;;;;;;;;;;;4964641;28;20392;-73
2024/03/24 06:51:32;;;;;;;;;;;;;;;;;;4965380;28;19930;-73
2024/03/24 06:53:58;;;;;;;;;;;;;;;;;;4964490;28;20341;-73
2024/03/24 06:56:25;;;;;;;;;;;;;;;;;;4965901;28;19957;-73
2024/03/24 06:58:51;;;;;;;;;;;;;;;;;;4965527;28;19930;-73
2024/03/24 07:01:18;;;;;;;;;;;;;;;;;;4965280;28;19941;-74
2024/03/24 07:03:44;;;;;;;;;;;;;;;;;;4964479;28;20451;-73
2024/03/24 07:06:13;;;;;;;;;;;;;;;;;;4962579;28;19930;-73
2024/03/24 07:08:39;;;;;;;;;;;;;;;;;;4960960;28;19999;-74
2024/03/24 07:11:06;;;;;;;;;;;;;;;;;;4959977;28;20397;-74
2024/03/24 07:13:32;;;;;;;;;;;;;;;;;;4964304;28;19934;-73
2024/03/24 07:15:59;;;;;;;;;;;;;;;;;;4964826;28;19931;-69
2024/03/24 07:18:25;;;;;;;;;;;;;;;;;;4963916;28;20352;-69
2024/03/24 07:20:52;;;;;;;;;;;;;;;;;;4967530;28;20393;-68
2024/03/24 07:23:18;;;;;;;;;;;;;;;;;;4968253;28;19999;-69
2024/03/24 07:25:46;;;;;;;;;;;;;;;;;;4968664;28;19930;-70
2024/03/24 07:28:12;;;;;;;;;;;;;;;;;;4971726;28;19982;-69
2024/03/24 07:30:39;;;;;;;;;;;;;;;;;;4964142;28;19937;-69
2024/03/24 07:33:05;;;;;;;;;;;;;;;;;;4970156;28;19984;-69
2024/03/24 07:35:33;;;;;;;;;;;;;;;;;;4968381;28;19930;-69
2024/03/24 07:37:59;;;;;;;;;;;;;;;;;;4968023;28;19930;-69
2024/03/24 07:40:26;;;;;;;;;;;;;;;;;;4969987;28;19938;-69
2024/03/24 07:42:52;;;;;;;;;;;;;;;;;;4967094;28;19930;-69
2024/03/24 07:45:19;;;;;;;;;;;;;;;;;;4964498;28;20067;-67
2024/03/24 07:47:45;;;;;;;;;;;;;;;;;;4967696;28;20019;-68
2024/03/24 07:50:12;;;;;;;;;;;;;;;;;;4986710;28;19928;-71
2024/03/24 07:52:38;;;;;;;;;;;;;;;;;;4977338;28;20066;-69
2024/03/24 07:55:05;;;;;;;;;;;;;;;;;;4969703;28;19930;-69
2024/03/24 07:57:31;;;;;;;;;;;;;;;;;;4967233;28;20347;-69
2024/03/24 07:59:59;;;;;;;;;;;;;;;;;;4969694;28;19930;-70
2024/03/24 08:02:25;;;;;;;;;;;;;;;;;;4961027;28;19934;-70
2024/03/24 08:04:52;;;;;;;;;;;;;;;;;;4965592;28;20063;-70
2024/03/24 08:07:18;;;;;;;;;;;;;;;;;;4976581;28;20033;-69
2024/03/24 08:09:45;;;;;;;;;;;;;;;;;;4966095;28;19931;-70
2024/03/24 08:12:11;;;;;;;;;;;;;;;;;;4985929;28;19934;-67
2024/03/24 08:14:41;;;;;;;;;;;;;;;;;;4958835;28;19935;-68
2024/03/24 08:17:07;;;;;;;;;;;;;;;;;;4966082;28;19930;-67
2024/03/24 08:19:34;;;;;;;;;;;;;;;;;;4965573;28;19930;-68
2024/03/24 08:22:00;;;;;;;;;;;;;;;;;;4963785;28;20005;-69
2024/03/24 08:24:27;;;;;;;;;;;;;;;;;;4954788;28;19934;-68
2024/03/24 08:26:53;;;;;;;;;;;;;;;;;;4961879;28;20361;-69
2024/03/24 08:29:20;;;;;;;;;;;;;;;;;;4965071;28;20753;-68
2024/03/24 08:31:46;;;;;;;;;;;;;;;;;;4957864;28;20015;-69
2024/03/24 08:34:13;;;;;;;;;;;;;;;;;;4956148;28;19973;-68
2024/03/24 08:36:39;;;;;;;;;;;;;;;;;;4955122;28;20056;-68
2024/03/24 08:39:06;;;;;;;;;;;;;;;;;;4959735;28;19930;-69
2024/03/24 08:41:32;;;;;;;;;;;;;;;;;;4960023;28;20462;-68
2024/03/24 08:43:59;;;;;;;;;;;;;;;;;;4954943;28;19934;-69
2024/03/24 08:46:25;;;;;;;;;;;;;;;;;;4962618;28;20015;-70
2024/03/24 08:48:53;;;;;;;;;;;;;;;;;;4961670;28;19930;-69
2024/03/24 08:51:19;;;;;;;;;;;;;;;;;;4961826;28;20385;-69
2024/03/24 08:53:46;;;;;;;;;;;;;;;;;;4961940;28;19998;-69
2024/03/24 08:56:12;;;;;;;;;;;;;;;;;;4965097;28;20703;-69
2024/03/24 08:58:39;;;;;;;;;;;;;;;;;;4964243;28;20361;-68
2024/03/24 09:01:06;;;;;;;;;;;;;;;;;;4960056;28;19934;-68
2024/03/24 09:03:33;;;;;;;;;;;;;;;;;;4961397;28;20000;-68
2024/03/24 09:05:59;;;;;;;;;;;;;;;;;;4958055;28;20034;-71
2024/03/24 09:08:26;;;;;;;;;;;;;;;;;;4956684;28;19934;-72
2024/03/24 09:10:52;;;;;;;;;;;;;;;;;;4959393;28;20027;-71
2024/03/24 09:13:19;;;;;;;;;;;;;;;;;;4960380;28;19930;-71
2024/03/24 09:15:45;;;;;;;;;;;;;;;;;;4961010;28;19995;-70
2024/03/24 09:18:12;;;;;;;;;;;;;;;;;;4961833;28;19930;-69
2024/03/24 09:20:38;;;;;;;;;;;;;;;;;;4964504;28;20019;-69
2024/03/24 09:23:06;;;;;;;;;;;;;;;;;;4964236;28;19964;-69
2024/03/24 09:25:32;;;;;;;;;;;;;;;;;;4963453;28;19930;-69
2024/03/24 09:27:59;;;;;;;;;;;;;;;;;;4959217;28;19930;-68
2024/03/24 09:30:25;;;;;;;;;;;;;;;;;;4961076;28;19980;-68
2024/03/24 09:32:52;;;;;;;;;;;;;;;;;;4964068;28;19930;-69
2024/03/24 09:35:18;;;;;;;;;;;;;;;;;;4957136;28;19992;-69
2024/03/24 09:37:45;;;;;;;;;;;;;;;;;;4960892;28;20009;-69
2024/03/24 09:40:11;;;;;;;;;;;;;;;;;;4961138;28;19937;-69
2024/03/24 09:42:38;;;;;;;;;;;;;;;;;;4964377;28;19937;-68
2024/03/24 09:45:04;;;;;;;;;;;;;;;;;;4958136;28;19930;-69
2024/03/24 09:47:32;;;;;;;;;;;;;;;;;;4961085;28;19934;-71
2024/03/24 09:49:58;;;;;;;;;;;;;;;;;;4965108;28;19987;-69
2024/03/24 09:52:25;;;;;;;;;;;;;;;;;;4963401;28;19934;-70
2024/03/24 09:54:51;;;;;;;;;;;;;;;;;;4960846;28;19930;-71
2024/03/24 09:57:18;;;;;;;;;;;;;;;;;;4960798;28;19937;-71
2024/03/24 09:59:45;;;;;;;;;;;;;;;;;;4957728;28;19982;-70
2024/03/24 10:02:12;;;;;;;;;;;;;;;;;;4959663;28;19930;-71
2024/03/24 10:04:38;;;;;;;;;;;;;;;;;;4958214;28;19937;-70
2024/03/24 10:07:05;;;;;;;;;;;;;;;;;;4964300;28;19930;-70
2024/03/24 10:09:31;;;;;;;;;;;;;;;;;;4961566;28;20004;-70
2024/03/24 10:11:58;;;;;;;;;;;;;;;;;;4963261;28;19985;-70
2024/03/24 10:14:24;;;;;;;;;;;;;;;;;;4963851;28;19972;-69
2024/03/24 10:16:51;;;;;;;;;;;;;;;;;;4960157;28;19937;-69
2024/03/24 10:19:17;;;;;;;;;;;;;;;;;;4960033;28;20371;-69
2024/03/24 10:21:44;;;;;;;;;;;;;;;;;;4954565;28;19935;-70
2024/03/24 10:24:10;;;;;;;;;;;;;;;;;;4962099;28;20486;-70
2024/03/24 10:26:37;;;;;;;;;;;;;;;;;;4960262;28;19930;-69
2024/03/24 10:29:04;;;;;;;;;;;;;;;;;;4958683;28;19988;-69
2024/03/24 10:31:31;;;;;;;;;;;;;;;;;;4960869;28;19930;-71
2024/03/24 10:33:57;;;;;;;;;;;;;;;;;;4965699;28;19934;-69
2024/03/24 10:36:24;;;;;;;;;;;;;;;;;;4959468;28;19999;-69
2024/03/24 10:38:50;;;;;;;;;;;;;;;;;;4957096;28;19969;-69
2024/03/24 10:41:17;;;;;;;;;;;;;;;;;;4962455;28;20020;-68
2024/03/24 10:43:43;;;;;;;;;;;;;;;;;;4963890;28;19985;-68
2024/03/24 10:46:11;;;;;;;;;;;;;;;;;;4970450;28;19930;-69
2024/03/24 10:48:37;;;;;;;;;;;;;;;;;;4966231;28;19930;-71
2024/03/24 10:51:05;;;;;;;;;;;;;;;;;;4962710;28;20011;-69
2024/03/24 10:53:31;;;;;;;;;;;;;;;;;;4962298;28;20480;-70
2024/03/24 10:55:58;;;;;;;;;;;;;;;;;;4963291;28;19930;-70
2024/03/24 10:58:24;;;;;;;;;;;;;;;;;;4960619;28;20431;-69
2024/03/24 11:00:51;;;;;;;;;;;;;;;;;;4957598;28;20055;-69
2024/03/24 11:03:17;;;;;;;;;;;;;;;;;;4972091;28;19981;-68
2024/03/24 11:05:44;;;;;;;;;;;;;;;;;;4986932;28;19984;-68
2024/03/24 11:08:11;;;;;;;;;;;;;;;;;;4964958;28;20287;-68
2024/03/24 11:10:38;;;;;;;;;;;;;;;;;;4980828;28;19973;-69
2024/03/24 11:13:04;;;;;;;;;;;;;;;;;;4968101;28;20058;-68
2024/03/24 11:15:31;;;;;;;;;;;;;;;;;;4966499;28;20722;-68
2024/03/24 11:17:57;;;;;;;;;;;;;;;;;;4961783;28;20381;-68
2024/03/24 11:20:24;;;;;;;;;;;;;;;;;;4965605;28;19953;-69
2024/03/24 11:22:50;;;;;;;;;;;;;;;;;;4967174;28;20389;-69
2024/03/24 11:25:17;;;;;;;;;;;;;;;;;;4973081;28;19930;-68
2024/03/24 11:27:43;;;;;;;;;;;;;;;;;;4966178;28;19933;-69
2024/03/24 11:30:10;;;;;;;;;;;;;;;;;;4970501;28;20494;-68
2024/03/24 11:32:36;;;;;;;;;;;;;;;;;;4960920;28;19977;-68
2024/03/24 11:35:03;;;;;;;;;;;;;;;;;;4960646;28;20054;-68
2024/03/24 11:37:29;;;;;;;;;;;;;;;;;;4965349;28;19937;-69
2024/03/24 11:39:58;;;;;;;;;;;;;;;;;;4987010;28;19935;-69
2024/03/24 11:42:24;;;;;;;;;;;;;;;;;;4966654;28;19937;-68
2024/03/24 11:44:51;;;;;;;;;;;;;;;;;;4961993;28;20258;-69
2024/03/24 11:47:17;;;;;;;;;;;;;;;;;;4964807;28;19930;-73
2024/03/24 11:49:44;;;;;;;;;;;;;;;;;;4965217;28;20082;-74
2024/03/24 11:52:10;;;;;;;;;;;;;;;;;;4955695;28;20339;-68
2024/03/24 11:54:37;;;;;;;;;;;;;;;;;;4955497;28;20401;-69
2024/03/24 11:57:04;;;;;;;;;;;;;;;;;;4965982;28;19940;-68
2024/03/24 11:59:31;;;;;;;;;;;;;;;;;;4966412;28;19931;-69
2024/03/24 12:01:57;;;;;;;;;;;;;;;;;;4960932;28;19966;-68
2024/03/24 12:04:24;;;;;;;;;;;;;;;;;;4965797;28;19961;-69
2024/03/24 12:06:50;;;;;;;;;;;;;;;;;;4967839;28;19997;-69
2024/03/24 12:09:17;;;;;;;;;;;;;;;;;;4971831;28;20299;-69
2024/03/24 12:11:44;;;;;;;;;;;;;;;;;;4960632;28;19930;-69
2024/03/24 12:14:12;;;;;;;;;;;;;;;;;;4978570;28;19950;-69
2024/03/24 12:16:38;;;;;;;;;;;;;;;;;;4971705;28;19998;-70
2024/03/24 12:19:05;;;;;;;;;;;;;;;;;;4966142;28;19978;-70
2024/03/24 12:21:31;;;;;;;;;;;;;;;;;;4962475;28;19962;-70
2024/03/24 12:23:58;;;;;;;;;;;;;;;;;;4965769;28;20560;-69
2024/03/24 12:26:24;;;;;;;;;;;;;;;;;;4974477;28;19934;-67
2024/03/24 12:28:51;;;;;;;;;;;;;;;;;;4966665;28;19930;-67
2024/03/24 12:31:17;;;;;;;;;;;;;;;;;;4966823;28;19991;-68
2024/03/24 12:33:44;;;;;;;;;;;;;;;;;;4963221;28;19936;-68
2024/03/24 12:36:10;;;;;;;;;;;;;;;;;;4965432;28;19970;-67
2024/03/24 12:38:37;;;;;;;;;;;;;;;;;;4963786;28;20022;-68
2024/03/24 12:41:03;;;;;;;;;;;;;;;;;;4963900;28;19976;-69
2024/03/24 12:43:30;;;;;;;;;;;;;;;;;;4961298;28;20294;-69
2024/03/24 12:45:56;;;;;;;;;;;;;;;;;;4964920;28;19973;-68
2024/03/24 12:48:23;;;;;;;;;;;;;;;;;;4961438;28;20290;-69
2024/03/24 12:50:49;;;;;;;;;;;;;;;;;;4965627;28;20050;-68
2024/03/24 12:53:16;;;;;;;;;;;;;;;;;;4970524;28;19934;-69
2024/03/24 12:55:42;;;;;;;;;;;;;;;;;;4963369;28;19930;-68
2024/03/24 12:58:09;;;;;;;;;;;;;;;;;;4962623;28;20456;-68
2024/03/24 13:00:35;;;;;;;;;;;;;;;;;;4961709;28;19930;-69
2024/03/24 13:03:02;;;;;;;;;;;;;;;;;;4965681;28;20029;-69
2024/03/24 13:05:28;;;;;;;;;;;;;;;;;;4954435;28;19988;-69
2024/03/24 13:07:55;;;;;;;;;;;;;;;;;;4960150;28;19938;-69
2024/03/24 13:10:21;;;;;;;;;;;;;;;;;;4972936;28;19969;-68
2024/03/24 13:12:50;;;;;;;;;;;;;;;;;;4958269;28;19930;-69
2024/03/24 13:15:17;;;;;;;;;;;;;;;;;;4971523;28;19930;-68
2024/03/24 13:17:44;;;;;;;;;;;;;;;;;;4961795;28;19969;-68
2024/03/24 13:20:10;;;;;;;;;;;;;;;;;;4965542;28;20295;-68
2024/03/24 13:22:37;;;;;;;;;;;;;;;;;;4965458;28;19967;-68
2024/03/24 13:25:04;;;;;;;;;;;;;;;;;;4965071;28;19934;-68
2024/03/24 13:27:31;;;;;;;;;;;;;;;;;;4965291;28;19945;-68
2024/03/24 13:29:57;;;;;;;;;;;;;;;;;;4970934;28;20392;-69
2024/03/24 13:32:24;;;;;;;;;;;;;;;;;;4959861;28;19936;-69
2024/03/24 13:34:50;;;;;;;;;;;;;;;;;;4962664;28;20343;-69
2024/03/24 13:37:17;;;;;;;;;;;;;;;;;;4962807;28;19934;-68
2024/03/24 13:39:43;;;;;;;;;;;;;;;;;;4965777;28;19930;-68
2024/03/24 13:42:10;;;;;;;;;;;;;;;;;;4958671;28;19934;-68
2024/03/24 13:44:36;;;;;;;;;;;;;;;;;;4960199;28;19930;-68
2024/03/24 13:47:04;;;;;;;;;;;;;;;;;;4960607;28;19936;-69
2024/03/24 13:49:30;;;;;;;;;;;;;;;;;;4961293;28;19930;-69
2024/03/24 13:51:57;;;;;;;;;;;;;;;;;;4975457;28;20270;-68
2024/03/24 13:54:23;;;;;;;;;;;;;;;;;;4961448;28;19939;-70
2024/03/24 13:56:50;;;;;;;;;;;;;;;;;;4965416;28;20313;-70
2024/03/24 13:59:16;;;;;;;;;;;;;;;;;;4996098;28;19974;-70
2024/03/24 14:01:43;;;;;;;;;;;;;;;;;;4957570;28;20009;-69
2024/03/24 14:04:09;;;;;;;;;;;;;;;;;;4966392;28;20076;-70
2024/03/24 14:06:36;;;;;;;;;;;;;;;;;;4964080;28;20426;-70
2024/03/24 14:09:02;;;;;;;;;;;;;;;;;;4957576;28;19979;-70
2024/03/24 14:11:29;;;;;;;;;;;;;;;;;;4962635;28;19930;-69
2024/03/24 14:13:55;;;;;;;;;;;;;;;;;;4978747;28;19987;-71
2024/03/24 14:16:28;;;;;;;;;;;;;;;;;;4959729;28;19930;-69
2024/03/24 14:18:54;;;;;;;;;;;;;;;;;;4968846;28;19930;-68
2024/03/24 14:21:21;;;;;;;;;;;;;;;;;;4960957;28;19987;-70
2024/03/24 14:23:47;;;;;;;;;;;;;;;;;;4966392;28;19934;-69
2024/03/24 14:26:14;;;;;;;;;;;;;;;;;;4961070;28;19934;-70
2024/03/24 14:28:40;;;;;;;;;;;;;;;;;;4962039;28;20034;-70
2024/03/24 14:31:08;;;;;;;;;;;;;;;;;;4957712;28;20003;-70
2024/03/24 14:33:34;;;;;;;;;;;;;;;;;;4972997;28;19929;-70
2024/03/24 14:36:01;;;;;;;;;;;;;;;;;;4968618;28;19934;-69
2024/03/24 14:38:28;;;;;;;;;;;;;;;;;;4964805;28;19929;-70
2024/03/24 14:40:56;;;;;;;;;;;;;;;;;;4953214;28;19960;-69
2024/03/24 14:43:22;;;;;;;;;;;;;;;;;;4972764;28;19937;-70
2024/03/24 14:45:49;;;;;;;;;;;;;;;;;;4962641;28;19957;-70
2024/03/24 14:48:15;;;;;;;;;;;;;;;;;;4966879;28;19966;-66
2024/03/24 14:50:42;;;;;;;;;;;;;;;;;;4964931;28;20358;-68
2024/03/24 14:53:09;;;;;;;;;;;;;;;;;;4961222;28;19976;-68
2024/03/24 14:55:36;;;;;;;;;;;;;;;;;;4965845;28;20408;-68
2024/03/24 14:58:02;;;;;;;;;;;;;;;;;;4961686;28;19930;-69
2024/03/24 15:00:29;;;;;;;;;;;;;;;;;;4960742;28;19930;-71
2024/03/24 15:02:56;;;;;;;;;;;;;;;;;;4962358;28;19945;-70
2024/03/24 15:05:23;;;;;;;;;;;;;;;;;;4967101;28;19934;-72
2024/03/24 15:07:49;;;;;;;;;;;;;;;;;;4963085;28;20309;-71
2024/03/24 15:10:16;;;;;;;;;;;;;;;;;;4962424;28;19940;-72
2024/03/24 15:12:42;;;;;;;;;;;;;;;;;;4949554;28;20028;-72
2024/03/24 15:15:09;;;;;;;;;;;;;;;;;;4996941;28;19984;-72
2024/03/24 15:17:35;;;;;;;;;;;;;;;;;;4993750;28;20405;-72
2024/03/24 15:20:02;;;;;;;;;;;;;;;;;;4966081;28;19930;-72
2024/03/24 15:22:31;;;;;;;;;;;;;;;;;;4953358;28;20000;-71
2024/03/24 15:24:58;;;;;;;;;;;;;;;;;;4955850;28;20384;-71
2024/03/24 15:27:24;;;;;;;;;;;;;;;;;;4958848;28;19934;-73
2024/03/24 15:29:53;;;;;;;;;;;;;;;;;;4959178;28;19941;-72
2024/03/24 15:32:19;;;;;;;;;;;;;;;;;;4962487;28;20366;-70
2024/03/24 15:34:46;;;;;;;;;;;;;;;;;;4964910;28;19957;-70
2024/03/24 15:37:12;;;;;;;;;;;;;;;;;;4964127;28;19936;-71
2024/03/24 15:39:40;;;;;;;;;;;;;;;;;;4966453;28;19974;-71
2024/03/24 15:42:06;;;;;;;;;;;;;;;;;;4963473;28;19934;-71
2024/03/24 15:44:33;;;;;;;;;;;;;;;;;;4961396;28;20428;-70
2024/03/24 15:46:59;;;;;;;;;;;;;;;;;;4965294;28;20024;-70
2024/03/24 15:49:26;;;;;;;;;;;;;;;;;;4967641;28;20017;-70
2024/03/24 15:51:53;;;;;;;;;;;;;;;;;;4966906;28;20040;-70
2024/03/24 15:54:20;;;;;;;;;;;;;;;;;;4981329;28;19984;-70
2024/03/24 15:56:46;;;;;;;;;;;;;;;;;;4969583;28;20482;-69
2024/03/24 15:59:13;;;;;;;;;;;;;;;;;;4951532;28;20444;-70
2024/03/24 16:01:39;;;;;;;;;;;;;;;;;;4958791;28;20022;-69
2024/03/24 16:04:06;;;;;;;;;;;;;;;;;;4956965;28;19938;-70
2024/03/24 16:06:32;;;;;;;;;;;;;;;;;;4956419;28;19938;-70
2024/03/24 16:08:59;;;;;;;;;;;;;;;;;;4972657;28;20021;-69
2024/03/24 16:11:26;;;;;;;;;;;;;;;;;;4961084;28;20068;-70
2024/03/24 16:13:54;;;;;;;;;;;;;;;;;;4966862;28;19931;-69
2024/03/24 16:16:20;;;;;;;;;;;;;;;;;;4979523;28;20558;-71
2024/03/24 16:18:47;;;;;;;;;;;;;;;;;;4963953;28;20000;-69
2024/03/24 16:21:13;;;;;;;;;;;;;;;;;;4977454;28;19973;-69
2024/03/24 16:23:41;;;;;;;;;;;;;;;;;;4968437;28;20446;-70
2024/03/24 16:26:07;;;;;;;;;;;;;;;;;;4977733;28;20053;-73
2024/03/24 16:28:34;;;;;;;;;;;;;;;;;;4971085;28;19976;-72
2024/03/24 16:31:00;;;;;;;;;;;;;;;;;;4964189;28;19930;-75
2024/03/24 16:33:27;;;;;;;;;;;;;;;;;;4962882;28;19950;-74
2024/03/24 16:35:55;;;;;;;;;;;;;;;;;;4979822;28;19936;-73
2024/03/24 16:38:24;;;;;;;;;;;;;;;;;;4966636;28;19934;-73
2024/03/24 16:40:50;;;;;;;;;;;;;;;;;;4998909;28;19930;-73